sensor_id;sensor_type;location;lat;lon;timestamp;temperature;humidity
15355;DHT22;7777;52.254;9.618;2023-03-11T00:01:01;1.40;99.90
15355;DHT22;7777;52.254;9.618;2023-03-11T00:03:36;1.40;99.90
15355;DHT22;7777;52.254;9.618;2023-03-11T00:06:10;1.40;99.90
15355;DHT22;7777;52.254;9.618;2023-03-11T00:08:36;1.50;99.90
15355;DHT22;7777;52.254;9.618;2023-03-11T00:11:02;1.40;99.90
15355;DHT22;7777;52.254;9.618;2023-03-11T00:13:28;1.50;99.90
15355;DHT22;7777;52.254;9.618;2023-03-11T00:15:55;1.50;99.90
15355;DHT22;7777;52.254;9.618;2023-03-11T00:18:31;1.40;99.90
15355;DHT22;7777;52.254;9.618;2023-03-11T00:20:58;1.50;99.90
15355;DHT22;7777;52.254;9.618;2023-03-11T00:23:25;1.50;99.90
15355;DHT22;7777;52.254;9.618;2023-03-11T00:25:51;1.40;99.90
15355;DHT22;7777;52.254;9.618;2023-03-11T00:28:18;1.40;99.90
15355;DHT22;7777;52.254;9.618;2023-03-11T00:30:46;1.40;99.90
15355;DHT22;7777;52.254;9.618;2023-03-11T00:33:13;1.50;99.90
15355;DHT22;7777;52.254;9.618;2023-03-11T00:35:40;1.50;99.90
15355;DHT22;7777;52.254;9.618;2023-03-11T00:38:10;1.40;99.90
15355;DHT22;7777;52.254;9.618;2023-03-11T00:40:38;1.50;99.90
15355;DHT22;7777;52.254;9.618;2023-03-11T00:43:04;1.40;99.90
15355;DHT22;7777;52.254;9.618;2023-03-11T00:45:31;1.40;99.90
15355;DHT22;7777;52.254;9.618;2023-03-11T00:47:56;1.40;99.90
15355;DHT22;7777;52.254;9.618;2023-03-11T00:50:26;1.40;99.90
15355;DHT22;7777;52.254;9.618;2023-03-11T00:52:57;1.40;99.90
15355;DHT22;7777;52.254;9.618;2023-03-11T00:55:26;1.40;99.90
15355;DHT22;7777;52.254;9.618;2023-03-11T00:57:55;1.40;99.90
15355;DHT22;7777;52.254;9.618;2023-03-11T01:00:23;1.40;99.90
15355;DHT22;7777;52.254;9.618;2023-03-11T01:02:50;1.30;99.90
15355;DHT22;7777;52.254;9.618;2023-03-11T01:05:19;1.40;99.90
15355;DHT22;7777;52.254;9.618;2023-03-11T01:07:46;1.30;99.90
15355;DHT22;7777;52.254;9.618;2023-03-11T01:10:13;1.30;99.90
15355;DHT22;7777;52.254;9.618;2023-03-11T01:12:40;1.40;99.90
15355;DHT22;7777;52.254;9.618;2023-03-11T01:15:08;1.40;99.90
15355;DHT22;7777;52.254;9.618;2023-03-11T01:17:36;1.30;99.90
15355;DHT22;7777;52.254;9.618;2023-03-11T01:20:02;1.30;99.90
15355;DHT22;7777;52.254;9.618;2023-03-11T01:22:30;1.30;99.90
15355;DHT22;7777;52.254;9.618;2023-03-11T01:24:56;1.50;99.90
15355;DHT22;7777;52.254;9.618;2023-03-11T01:27:22;1.30;99.90
15355;DHT22;7777;52.254;9.618;2023-03-11T01:29:48;1.20;99.90
15355;DHT22;7777;52.254;9.618;2023-03-11T01:32:14;1.20;99.90
15355;DHT22;7777;52.254;9.618;2023-03-11T01:34:39;1.30;99.90
15355;DHT22;7777;52.254;9.618;2023-03-11T01:37:05;1.30;99.90
15355;DHT22;7777;52.254;9.618;2023-03-11T01:39:31;1.30;99.90
15355;DHT22;7777;52.254;9.618;2023-03-11T01:41:57;1.40;99.90
15355;DHT22;7777;52.254;9.618;2023-03-11T01:44:22;1.30;99.90
15355;DHT22;7777;52.254;9.618;2023-03-11T01:49:18;1.20;99.90
15355;DHT22;7777;52.254;9.618;2023-03-11T01:51:49;1.30;99.90
15355;DHT22;7777;52.254;9.618;2023-03-11T01:54:30;1.30;99.90
15355;DHT22;7777;52.254;9.618;2023-03-11T01:56:57;1.30;99.90
15355;DHT22;7777;52.254;9.618;2023-03-11T01:59:28;1.30;99.90
15355;DHT22;7777;52.254;9.618;2023-03-11T02:04:53;1.30;99.90
15355;DHT22;7777;52.254;9.618;2023-03-11T02:07:19;1.30;99.90
15355;DHT22;7777;52.254;9.618;2023-03-11T02:09:45;1.20;99.90
15355;DHT22;7777;52.254;9.618;2023-03-11T02:12:12;1.30;99.90
15355;DHT22;7777;52.254;9.618;2023-03-11T02:14:42;1.30;99.90
15355;DHT22;7777;52.254;9.618;2023-03-11T02:17:10;1.30;99.90
15355;DHT22;7777;52.254;9.618;2023-03-11T02:22:29;1.30;99.90
15355;DHT22;7777;52.254;9.618;2023-03-11T02:28:04;1.30;99.90
15355;DHT22;7777;52.254;9.618;2023-03-11T02:30:33;1.30;99.90
15355;DHT22;7777;52.254;9.618;2023-03-11T02:33:00;1.20;99.90
15355;DHT22;7777;52.254;9.618;2023-03-11T02:35:26;1.30;99.90
15355;DHT22;7777;52.254;9.618;2023-03-11T02:37:53;1.30;99.90
15355;DHT22;7777;52.254;9.618;2023-03-11T02:42:51;1.20;99.90
15355;DHT22;7777;52.254;9.618;2023-03-11T02:45:22;1.20;99.90
15355;DHT22;7777;52.254;9.618;2023-03-11T02:47:49;1.20;99.90
15355;DHT22;7777;52.254;9.618;2023-03-11T02:50:20;1.30;99.90
15355;DHT22;7777;52.254;9.618;2023-03-11T02:52:48;1.30;99.90
15355;DHT22;7777;52.254;9.618;2023-03-11T02:55:15;1.30;99.90
15355;DHT22;7777;52.254;9.618;2023-03-11T02:57:43;1.30;99.90
15355;DHT22;7777;52.254;9.618;2023-03-11T03:00:09;1.20;99.90
15355;DHT22;7777;52.254;9.618;2023-03-11T03:02:39;1.20;99.90
15355;DHT22;7777;52.254;9.618;2023-03-11T03:05:06;1.20;99.90
15355;DHT22;7777;52.254;9.618;2023-03-11T03:07:33;1.10;99.90
15355;DHT22;7777;52.254;9.618;2023-03-11T03:09:58;1.20;99.90
15355;DHT22;7777;52.254;9.618;2023-03-11T03:12:24;1.10;99.90
15355;DHT22;7777;52.254;9.618;2023-03-11T03:14:50;1.10;99.90
15355;DHT22;7777;52.254;9.618;2023-03-11T03:17:16;1.10;99.90
15355;DHT22;7777;52.254;9.618;2023-03-11T03:19:42;1.10;99.90
15355;DHT22;7777;52.254;9.618;2023-03-11T03:22:08;1.10;99.90
15355;DHT22;7777;52.254;9.618;2023-03-11T03:24:33;1.10;99.90
15355;DHT22;7777;52.254;9.618;2023-03-11T03:26:59;1.10;99.90
15355;DHT22;7777;52.254;9.618;2023-03-11T03:29:25;1.10;99.90
15355;DHT22;7777;52.254;9.618;2023-03-11T03:31:51;1.00;99.90
15355;DHT22;7777;52.254;9.618;2023-03-11T03:34:19;1.10;99.90
15355;DHT22;7777;52.254;9.618;2023-03-11T03:36:45;1.10;99.90
15355;DHT22;7777;52.254;9.618;2023-03-11T03:39:11;1.10;99.90
15355;DHT22;7777;52.254;9.618;2023-03-11T03:41:36;1.10;99.90
15355;DHT22;7777;52.254;9.618;2023-03-11T03:44:03;1.10;99.90
15355;DHT22;7777;52.254;9.618;2023-03-11T03:46:29;1.10;99.90
15355;DHT22;7777;52.254;9.618;2023-03-11T03:48:55;1.10;99.90
15355;DHT22;7777;52.254;9.618;2023-03-11T03:51:21;1.00;99.90
15355;DHT22;7777;52.254;9.618;2023-03-11T03:53:47;1.10;99.90
15355;DHT22;7777;52.254;9.618;2023-03-11T03:56:15;1.10;99.90
15355;DHT22;7777;52.254;9.618;2023-03-11T03:58:42;1.10;99.90
15355;DHT22;7777;52.254;9.618;2023-03-11T04:01:09;1.10;99.90
15355;DHT22;7777;52.254;9.618;2023-03-11T04:03:36;1.10;99.90
15355;DHT22;7777;52.254;9.618;2023-03-11T04:06:23;1.10;99.90
15355;DHT22;7777;52.254;9.618;2023-03-11T04:08:51;1.10;99.90
15355;DHT22;7777;52.254;9.618;2023-03-11T04:11:18;1.00;99.90
15355;DHT22;7777;52.254;9.618;2023-03-11T04:13:44;1.10;99.90
15355;DHT22;7777;52.254;9.618;2023-03-11T04:16:18;1.00;99.90
15355;DHT22;7777;52.254;9.618;2023-03-11T04:18:45;1.00;99.90
15355;DHT22;7777;52.254;9.618;2023-03-11T04:21:11;1.10;99.90
15355;DHT22;7777;52.254;9.618;2023-03-11T04:23:37;1.00;99.90
15355;DHT22;7777;52.254;9.618;2023-03-11T04:26:03;1.00;99.90
15355;DHT22;7777;52.254;9.618;2023-03-11T04:28:29;1.00;99.90
15355;DHT22;7777;52.254;9.618;2023-03-11T04:30:55;1.00;99.90
15355;DHT22;7777;52.254;9.618;2023-03-11T04:33:21;1.00;99.90
15355;DHT22;7777;52.254;9.618;2023-03-11T04:35:47;0.90;99.90
15355;DHT22;7777;52.254;9.618;2023-03-11T04:38:13;0.90;99.90
15355;DHT22;7777;52.254;9.618;2023-03-11T04:40:39;0.90;99.90
15355;DHT22;7777;52.254;9.618;2023-03-11T04:43:05;0.80;99.90
15355;DHT22;7777;52.254;9.618;2023-03-11T04:45:31;0.80;99.90
15355;DHT22;7777;52.254;9.618;2023-03-11T04:47:56;0.80;99.90
15355;DHT22;7777;52.254;9.618;2023-03-11T04:50:22;0.80;99.90
15355;DHT22;7777;52.254;9.618;2023-03-11T04:52:48;0.80;99.90
15355;DHT22;7777;52.254;9.618;2023-03-11T04:55:14;0.70;99.90
15355;DHT22;7777;52.254;9.618;2023-03-11T04:57:41;0.80;99.90
15355;DHT22;7777;52.254;9.618;2023-03-11T05:00:09;0.80;99.90
15355;DHT22;7777;52.254;9.618;2023-03-11T05:02:38;0.80;99.90
15355;DHT22;7777;52.254;9.618;2023-03-11T05:05:05;0.80;99.90
15355;DHT22;7777;52.254;9.618;2023-03-11T05:07:32;0.80;99.90
15355;DHT22;7777;52.254;9.618;2023-03-11T05:09:58;0.90;99.90
15355;DHT22;7777;52.254;9.618;2023-03-11T05:12:24;0.70;99.90
15355;DHT22;7777;52.254;9.618;2023-03-11T05:14:50;0.80;99.90
15355;DHT22;7777;52.254;9.618;2023-03-11T05:17:15;0.80;99.90
15355;DHT22;7777;52.254;9.618;2023-03-11T05:19:44;0.80;99.90
15355;DHT22;7777;52.254;9.618;2023-03-11T05:22:12;0.80;99.90
15355;DHT22;7777;52.254;9.618;2023-03-11T05:24:37;0.80;99.90
15355;DHT22;7777;52.254;9.618;2023-03-11T05:27:04;0.80;99.90
15355;DHT22;7777;52.254;9.618;2023-03-11T05:29:30;0.90;99.90
15355;DHT22;7777;52.254;9.618;2023-03-11T05:31:56;0.80;99.90
15355;DHT22;7777;52.254;9.618;2023-03-11T05:34:22;0.90;99.90
15355;DHT22;7777;52.254;9.618;2023-03-11T05:36:48;0.80;99.90
15355;DHT22;7777;52.254;9.618;2023-03-11T05:39:14;0.80;99.90
15355;DHT22;7777;52.254;9.618;2023-03-11T05:41:40;0.80;99.90
15355;DHT22;7777;52.254;9.618;2023-03-11T05:44:06;0.90;99.90
15355;DHT22;7777;52.254;9.618;2023-03-11T05:46:32;0.80;99.90
15355;DHT22;7777;52.254;9.618;2023-03-11T05:49:07;0.90;99.90
15355;DHT22;7777;52.254;9.618;2023-03-11T05:51:33;0.90;99.90
15355;DHT22;7777;52.254;9.618;2023-03-11T05:53:59;0.90;99.90
15355;DHT22;7777;52.254;9.618;2023-03-11T05:56:25;0.80;99.90
15355;DHT22;7777;52.254;9.618;2023-03-11T05:58:51;0.90;99.90
15355;DHT22;7777;52.254;9.618;2023-03-11T06:01:18;0.80;99.90
15355;DHT22;7777;52.254;9.618;2023-03-11T06:03:45;0.80;99.90
15355;DHT22;7777;52.254;9.618;2023-03-11T06:06:12;0.80;99.90
15355;DHT22;7777;52.254;9.618;2023-03-11T06:08:38;0.80;99.90
15355;DHT22;7777;52.254;9.618;2023-03-11T06:11:09;0.90;99.90
15355;DHT22;7777;52.254;9.618;2023-03-11T06:13:38;0.90;99.90
15355;DHT22;7777;52.254;9.618;2023-03-11T06:16:04;0.80;99.90
15355;DHT22;7777;52.254;9.618;2023-03-11T06:18:32;0.90;99.90
15355;DHT22;7777;52.254;9.618;2023-03-11T06:21:02;0.90;99.90
15355;DHT22;7777;52.254;9.618;2023-03-11T06:23:30;0.90;99.90
15355;DHT22;7777;52.254;9.618;2023-03-11T06:26:01;0.90;99.90
15355;DHT22;7777;52.254;9.618;2023-03-11T06:28:29;0.90;99.90
15355;DHT22;7777;52.254;9.618;2023-03-11T06:31:27;0.90;99.90
15355;DHT22;7777;52.254;9.618;2023-03-11T06:33:55;0.90;99.90
15355;DHT22;7777;52.254;9.618;2023-03-11T06:36:22;0.90;99.90
15355;DHT22;7777;52.254;9.618;2023-03-11T06:38:51;0.90;99.90
15355;DHT22;7777;52.254;9.618;2023-03-11T06:41:17;0.90;99.90
15355;DHT22;7777;52.254;9.618;2023-03-11T06:43:44;0.90;99.90
15355;DHT22;7777;52.254;9.618;2023-03-11T06:46:12;0.90;99.90
15355;DHT22;7777;52.254;9.618;2023-03-11T06:48:48;1.00;99.90
15355;DHT22;7777;52.254;9.618;2023-03-11T06:51:18;1.00;99.90
15355;DHT22;7777;52.254;9.618;2023-03-11T06:53:48;1.00;99.90
15355;DHT22;7777;52.254;9.618;2023-03-11T06:56:16;1.00;99.90
15355;DHT22;7777;52.254;9.618;2023-03-11T06:58:42;1.00;99.90
15355;DHT22;7777;52.254;9.618;2023-03-11T07:01:12;1.00;99.90
15355;DHT22;7777;52.254;9.618;2023-03-11T07:03:39;1.00;99.90
15355;DHT22;7777;52.254;9.618;2023-03-11T07:06:05;1.10;99.90
15355;DHT22;7777;52.254;9.618;2023-03-11T07:08:31;1.00;99.90
15355;DHT22;7777;52.254;9.618;2023-03-11T07:11:14;1.10;99.90
15355;DHT22;7777;52.254;9.618;2023-03-11T07:13:42;1.00;99.90
15355;DHT22;7777;52.254;9.618;2023-03-11T07:16:13;1.00;99.90
15355;DHT22;7777;52.254;9.618;2023-03-11T07:18:41;1.10;99.90
15355;DHT22;7777;52.254;9.618;2023-03-11T07:21:08;1.10;99.90
15355;DHT22;7777;52.254;9.618;2023-03-11T07:23:35;1.10;99.90
15355;DHT22;7777;52.254;9.618;2023-03-11T07:26:01;1.10;99.90
15355;DHT22;7777;52.254;9.618;2023-03-11T07:28:28;1.10;99.90
15355;DHT22;7777;52.254;9.618;2023-03-11T07:30:54;1.10;99.90
15355;DHT22;7777;52.254;9.618;2023-03-11T07:33:21;1.10;99.90
15355;DHT22;7777;52.254;9.618;2023-03-11T07:35:49;1.10;99.90
15355;DHT22;7777;52.254;9.618;2023-03-11T07:38:16;1.10;99.90
15355;DHT22;7777;52.254;9.618;2023-03-11T07:40:43;1.10;99.90
15355;DHT22;7777;52.254;9.618;2023-03-11T07:43:09;1.10;99.90
15355;DHT22;7777;52.254;9.618;2023-03-11T07:45:35;1.10;99.90
15355;DHT22;7777;52.254;9.618;2023-03-11T07:48:01;1.20;99.90
15355;DHT22;7777;52.254;9.618;2023-03-11T07:50:27;1.10;99.90
15355;DHT22;7777;52.254;9.618;2023-03-11T07:52:53;1.10;99.90
15355;DHT22;7777;52.254;9.618;2023-03-11T07:55:19;1.10;99.90
15355;DHT22;7777;52.254;9.618;2023-03-11T07:57:48;1.20;99.90
15355;DHT22;7777;52.254;9.618;2023-03-11T08:00:14;1.10;99.90
15355;DHT22;7777;52.254;9.618;2023-03-11T08:02:41;1.10;99.90
15355;DHT22;7777;52.254;9.618;2023-03-11T08:05:07;1.20;99.90
15355;DHT22;7777;52.254;9.618;2023-03-11T08:07:33;1.20;99.90
15355;DHT22;7777;52.254;9.618;2023-03-11T08:10:07;1.30;99.90
15355;DHT22;7777;52.254;9.618;2023-03-11T08:12:34;1.30;99.90
15355;DHT22;7777;52.254;9.618;2023-03-11T08:15:03;1.30;99.90
15355;DHT22;7777;52.254;9.618;2023-03-11T08:17:32;1.30;99.90
15355;DHT22;7777;52.254;9.618;2023-03-11T08:19:58;1.40;99.90
15355;DHT22;7777;52.254;9.618;2023-03-11T08:22:24;1.40;99.90
15355;DHT22;7777;52.254;9.618;2023-03-11T08:24:51;1.40;99.90
15355;DHT22;7777;52.254;9.618;2023-03-11T08:27:17;1.40;99.90
15355;DHT22;7777;52.254;9.618;2023-03-11T08:29:43;1.50;99.90
15355;DHT22;7777;52.254;9.618;2023-03-11T08:32:09;1.50;99.90
15355;DHT22;7777;52.254;9.618;2023-03-11T08:34:34;1.50;99.90
15355;DHT22;7777;52.254;9.618;2023-03-11T08:37:00;1.60;99.90
15355;DHT22;7777;52.254;9.618;2023-03-11T08:39:29;1.60;99.90
15355;DHT22;7777;52.254;9.618;2023-03-11T08:41:56;1.70;99.90
15355;DHT22;7777;52.254;9.618;2023-03-11T08:44:21;1.80;99.90
15355;DHT22;7777;52.254;9.618;2023-03-11T08:46:47;1.80;99.90
15355;DHT22;7777;52.254;9.618;2023-03-11T08:49:13;1.80;99.90
15355;DHT22;7777;52.254;9.618;2023-03-11T08:51:38;1.90;99.90
15355;DHT22;7777;52.254;9.618;2023-03-11T08:54:05;1.90;99.90
15355;DHT22;7777;52.254;9.618;2023-03-11T08:56:30;2.00;99.90
15355;DHT22;7777;52.254;9.618;2023-03-11T08:58:56;2.00;99.90
15355;DHT22;7777;52.254;9.618;2023-03-11T09:01:22;2.10;99.90
15355;DHT22;7777;52.254;9.618;2023-03-11T09:03:48;2.10;99.90
15355;DHT22;7777;52.254;9.618;2023-03-11T09:06:16;2.10;99.90
15355;DHT22;7777;52.254;9.618;2023-03-11T09:08:43;2.20;99.90
15355;DHT22;7777;52.254;9.618;2023-03-11T09:11:09;2.30;99.90
15355;DHT22;7777;52.254;9.618;2023-03-11T09:13:34;2.30;99.90
15355;DHT22;7777;52.254;9.618;2023-03-11T09:16:00;2.30;99.90
15355;DHT22;7777;52.254;9.618;2023-03-11T09:18:27;2.30;99.90
15355;DHT22;7777;52.254;9.618;2023-03-11T09:20:53;2.40;99.90
15355;DHT22;7777;52.254;9.618;2023-03-11T09:23:23;2.40;99.90
15355;DHT22;7777;52.254;9.618;2023-03-11T09:25:49;2.50;99.90
15355;DHT22;7777;52.254;9.618;2023-03-11T09:28:14;2.50;99.90
15355;DHT22;7777;52.254;9.618;2023-03-11T09:30:40;2.60;99.90
15355;DHT22;7777;52.254;9.618;2023-03-11T09:33:06;2.60;99.90
15355;DHT22;7777;52.254;9.618;2023-03-11T09:35:33;2.60;99.90
15355;DHT22;7777;52.254;9.618;2023-03-11T09:37:59;2.70;99.90
15355;DHT22;7777;52.254;9.618;2023-03-11T09:40:26;2.60;99.90
15355;DHT22;7777;52.254;9.618;2023-03-11T09:43:25;2.60;99.90
15355;DHT22;7777;52.254;9.618;2023-03-11T09:51:56;2.60;99.90
15355;DHT22;7777;52.254;9.618;2023-03-11T09:54:36;2.70;99.90
15355;DHT22;7777;52.254;9.618;2023-03-11T09:57:04;2.70;99.90
15355;DHT22;7777;52.254;9.618;2023-03-11T09:59:31;2.70;99.90
15355;DHT22;7777;52.254;9.618;2023-03-11T10:01:58;2.70;99.90
15355;DHT22;7777;52.254;9.618;2023-03-11T10:04:41;2.70;99.90
15355;DHT22;7777;52.254;9.618;2023-03-11T10:07:16;2.80;99.90
15355;DHT22;7777;52.254;9.618;2023-03-11T10:09:57;2.80;99.90
15355;DHT22;7777;52.254;9.618;2023-03-11T10:27:48;3.20;99.90
15355;DHT22;7777;52.254;9.618;2023-03-11T10:30:32;3.30;99.90
15355;DHT22;7777;52.254;9.618;2023-03-11T10:33:06;3.40;99.90
15355;DHT22;7777;52.254;9.618;2023-03-11T10:35:42;3.50;99.90
15355;DHT22;7777;52.254;9.618;2023-03-11T10:38:15;3.60;99.90
15355;DHT22;7777;52.254;9.618;2023-03-11T10:40:46;3.70;99.90
15355;DHT22;7777;52.254;9.618;2023-03-11T10:43:19;3.80;99.90
15355;DHT22;7777;52.254;9.618;2023-03-11T10:45:51;3.90;99.90
15355;DHT22;7777;52.254;9.618;2023-03-11T10:48:20;4.00;99.90
15355;DHT22;7777;52.254;9.618;2023-03-11T10:51:10;4.10;99.90
15355;DHT22;7777;52.254;9.618;2023-03-11T10:53:47;4.20;99.90
15355;DHT22;7777;52.254;9.618;2023-03-11T10:59:01;4.30;99.90
15355;DHT22;7777;52.254;9.618;2023-03-11T11:01:39;4.40;99.90
15355;DHT22;7777;52.254;9.618;2023-03-11T11:04:37;4.40;99.90
15355;DHT22;7777;52.254;9.618;2023-03-11T11:07:33;4.50;99.90
15355;DHT22;7777;52.254;9.618;2023-03-11T11:10:22;4.60;99.90
15355;DHT22;7777;52.254;9.618;2023-03-11T11:15:41;4.70;99.90
15355;DHT22;7777;52.254;9.618;2023-03-11T11:18:35;4.70;99.90
15355;DHT22;7777;52.254;9.618;2023-03-11T11:21:12;4.80;99.90
15355;DHT22;7777;52.254;9.618;2023-03-11T11:23:49;4.80;99.90
15355;DHT22;7777;52.254;9.618;2023-03-11T11:26:41;4.90;99.90
15355;DHT22;7777;52.254;9.618;2023-03-11T11:31:40;5.00;99.90
15355;DHT22;7777;52.254;9.618;2023-03-11T11:34:27;5.00;99.90
15355;DHT22;7777;52.254;9.618;2023-03-11T11:36:59;5.10;99.90
15355;DHT22;7777;52.254;9.618;2023-03-11T11:39:31;5.00;99.90
15355;DHT22;7777;52.254;9.618;2023-03-11T11:42:02;5.10;99.90
15355;DHT22;7777;52.254;9.618;2023-03-11T11:44:32;5.10;99.90
15355;DHT22;7777;52.254;9.618;2023-03-11T11:47:05;5.20;99.90
15355;DHT22;7777;52.254;9.618;2023-03-11T11:49:48;5.20;99.90
15355;DHT22;7777;52.254;9.618;2023-03-11T11:52:23;5.20;99.90
15355;DHT22;7777;52.254;9.618;2023-03-11T11:54:57;5.20;99.90
15355;DHT22;7777;52.254;9.618;2023-03-11T11:57:28;5.20;99.90
15355;DHT22;7777;52.254;9.618;2023-03-11T11:59:54;5.20;99.90
15355;DHT22;7777;52.254;9.618;2023-03-11T12:05:25;5.20;99.90
15355;DHT22;7777;52.254;9.618;2023-03-11T12:10:58;5.20;99.90
15355;DHT22;7777;52.254;9.618;2023-03-11T12:13:28;5.20;99.90
15355;DHT22;7777;52.254;9.618;2023-03-11T12:16:14;5.30;99.90
15355;DHT22;7777;52.254;9.618;2023-03-11T12:30:44;5.40;99.90
15355;DHT22;7777;52.254;9.618;2023-03-11T12:35:53;5.40;99.90
15355;DHT22;7777;52.254;9.618;2023-03-11T12:38:33;5.50;99.90
15355;DHT22;7777;52.254;9.618;2023-03-11T12:41:07;5.50;99.90
15355;DHT22;7777;52.254;9.618;2023-03-11T12:43:56;5.60;99.90
15355;DHT22;7777;52.254;9.618;2023-03-11T12:49:44;5.70;99.90
15355;DHT22;7777;52.254;9.618;2023-03-11T12:52:27;5.90;99.90
15355;DHT22;7777;52.254;9.618;2023-03-11T12:57:40;6.10;99.90
15355;DHT22;7777;52.254;9.618;2023-03-11T13:00:48;6.20;99.90
15355;DHT22;7777;52.254;9.618;2023-03-11T13:03:46;6.40;99.90
15355;DHT22;7777;52.254;9.618;2023-03-11T13:06:50;6.50;99.90
15355;DHT22;7777;52.254;9.618;2023-03-11T13:09:25;6.60;99.90
15355;DHT22;7777;52.254;9.618;2023-03-11T13:11:51;6.70;99.90
15355;DHT22;7777;52.254;9.618;2023-03-11T13:14:29;6.60;99.90
15355;DHT22;7777;52.254;9.618;2023-03-11T13:17:22;6.60;99.90
15355;DHT22;7777;52.254;9.618;2023-03-11T13:19:58;6.70;99.90
15355;DHT22;7777;52.254;9.618;2023-03-11T13:25:40;6.90;99.90
15355;DHT22;7777;52.254;9.618;2023-03-11T13:28:47;6.90;99.90
15355;DHT22;7777;52.254;9.618;2023-03-11T13:31:47;6.90;99.90
15355;DHT22;7777;52.254;9.618;2023-03-11T13:43:18;7.00;99.90
15355;DHT22;7777;52.254;9.618;2023-03-11T13:45:58;6.90;99.90
15355;DHT22;7777;52.254;9.618;2023-03-11T13:48:43;6.90;99.90
15355;DHT22;7777;52.254;9.618;2023-03-11T13:51:23;6.80;99.90
15355;DHT22;7777;52.254;9.618;2023-03-11T13:53:58;6.80;99.90
15355;DHT22;7777;52.254;9.618;2023-03-11T13:56:30;6.80;99.90
15355;DHT22;7777;52.254;9.618;2023-03-11T13:59:29;6.80;99.90
15355;DHT22;7777;52.254;9.618;2023-03-11T14:04:32;6.70;99.90
15355;DHT22;7777;52.254;9.618;2023-03-11T14:07:16;6.70;99.90
15355;DHT22;7777;52.254;9.618;2023-03-11T14:09:45;6.60;99.90
15355;DHT22;7777;52.254;9.618;2023-03-11T14:12:11;6.60;99.90
15355;DHT22;7777;52.254;9.618;2023-03-11T14:15:04;6.60;99.90
15355;DHT22;7777;52.254;9.618;2023-03-11T14:17:32;6.70;99.90
15355;DHT22;7777;52.254;9.618;2023-03-11T14:20:18;6.70;99.90
15355;DHT22;7777;52.254;9.618;2023-03-11T14:22:49;6.80;99.90
15355;DHT22;7777;52.254;9.618;2023-03-11T14:25:23;6.90;99.90
15355;DHT22;7777;52.254;9.618;2023-03-11T14:27:58;6.90;99.90
15355;DHT22;7777;52.254;9.618;2023-03-11T14:30:28;6.80;99.90
15355;DHT22;7777;52.254;9.618;2023-03-11T14:33:15;6.80;99.90
15355;DHT22;7777;52.254;9.618;2023-03-11T14:35:53;6.70;99.90
15355;DHT22;7777;52.254;9.618;2023-03-11T14:38:23;6.60;99.90
15355;DHT22;7777;52.254;9.618;2023-03-11T14:40:53;6.50;99.90
15355;DHT22;7777;52.254;9.618;2023-03-11T14:43:20;6.50;99.90
15355;DHT22;7777;52.254;9.618;2023-03-11T14:45:48;6.40;99.90
15355;DHT22;7777;52.254;9.618;2023-03-11T14:50:55;6.30;99.90
15355;DHT22;7777;52.254;9.618;2023-03-11T14:53:29;6.20;99.90
15355;DHT22;7777;52.254;9.618;2023-03-11T14:56:03;6.20;99.90
15355;DHT22;7777;52.254;9.618;2023-03-11T14:58:43;6.10;99.90
15355;DHT22;7777;52.254;9.618;2023-03-11T15:01:24;6.00;99.90
15355;DHT22;7777;52.254;9.618;2023-03-11T15:04:04;6.00;99.90
15355;DHT22;7777;52.254;9.618;2023-03-11T15:06:34;5.90;99.90
15355;DHT22;7777;52.254;9.618;2023-03-11T15:09:10;5.90;99.90
15355;DHT22;7777;52.254;9.618;2023-03-11T15:11:45;5.90;99.90
15355;DHT22;7777;52.254;9.618;2023-03-11T15:14:25;5.90;99.90
15355;DHT22;7777;52.254;9.618;2023-03-11T15:16:52;5.90;99.90
15355;DHT22;7777;52.254;9.618;2023-03-11T15:21:54;5.80;99.90
15355;DHT22;7777;52.254;9.618;2023-03-11T15:24:28;5.80;99.90
15355;DHT22;7777;52.254;9.618;2023-03-11T15:27:04;5.80;99.90
15355;DHT22;7777;52.254;9.618;2023-03-11T15:29:33;5.70;99.90
15355;DHT22;7777;52.254;9.618;2023-03-11T15:32:24;5.70;99.90
15355;DHT22;7777;52.254;9.618;2023-03-11T15:37:32;5.60;99.90
15355;DHT22;7777;52.254;9.618;2023-03-11T15:40:12;5.60;99.90
15355;DHT22;7777;52.254;9.618;2023-03-11T15:42:48;5.50;99.90
15355;DHT22;7777;52.254;9.618;2023-03-11T15:45:18;5.50;99.90
15355;DHT22;7777;52.254;9.618;2023-03-11T15:47:46;5.40;99.90
15355;DHT22;7777;52.254;9.618;2023-03-11T15:50:24;5.30;99.90
15355;DHT22;7777;52.254;9.618;2023-03-11T15:52:53;5.30;99.90
15355;DHT22;7777;52.254;9.618;2023-03-11T15:55:21;5.20;99.90
15355;DHT22;7777;52.254;9.618;2023-03-11T15:57:48;5.20;99.90
15355;DHT22;7777;52.254;9.618;2023-03-11T16:00:21;5.20;99.90
15355;DHT22;7777;52.254;9.618;2023-03-11T16:02:50;5.10;99.90
15355;DHT22;7777;52.254;9.618;2023-03-11T16:05:21;5.10;99.90
15355;DHT22;7777;52.254;9.618;2023-03-11T16:07:48;5.00;99.90
15355;DHT22;7777;52.254;9.618;2023-03-11T16:10:17;5.00;99.90
15355;DHT22;7777;52.254;9.618;2023-03-11T16:12:44;5.00;99.90
15355;DHT22;7777;52.254;9.618;2023-03-11T16:15:27;4.90;99.90
15355;DHT22;7777;52.254;9.618;2023-03-11T16:18:01;4.90;99.90
15355;DHT22;7777;52.254;9.618;2023-03-11T16:20:53;4.80;99.90
15355;DHT22;7777;52.254;9.618;2023-03-11T16:23:25;4.80;99.90
15355;DHT22;7777;52.254;9.618;2023-03-11T16:25:57;4.70;99.90
15355;DHT22;7777;52.254;9.618;2023-03-11T16:28:24;4.70;99.90
15355;DHT22;7777;52.254;9.618;2023-03-11T16:30:50;4.60;99.90
15355;DHT22;7777;52.254;9.618;2023-03-11T16:33:17;4.60;99.90
15355;DHT22;7777;52.254;9.618;2023-03-11T16:35:43;4.50;99.90
15355;DHT22;7777;52.254;9.618;2023-03-11T16:38:09;4.50;99.90
15355;DHT22;7777;52.254;9.618;2023-03-11T16:40:35;4.40;99.90
15355;DHT22;7777;52.254;9.618;2023-03-11T16:43:06;4.40;99.90
15355;DHT22;7777;52.254;9.618;2023-03-11T16:45:34;4.30;99.90
15355;DHT22;7777;52.254;9.618;2023-03-11T16:48:00;4.30;99.90
15355;DHT22;7777;52.254;9.618;2023-03-11T16:50:26;4.20;99.90
15355;DHT22;7777;52.254;9.618;2023-03-11T16:52:53;4.20;99.90
15355;DHT22;7777;52.254;9.618;2023-03-11T16:55:20;4.10;99.90
15355;DHT22;7777;52.254;9.618;2023-03-11T16:57:46;4.10;99.90
15355;DHT22;7777;52.254;9.618;2023-03-11T17:00:13;4.00;99.90
15355;DHT22;7777;52.254;9.618;2023-03-11T17:02:39;4.00;99.90
15355;DHT22;7777;52.254;9.618;2023-03-11T17:05:06;3.90;99.90
15355;DHT22;7777;52.254;9.618;2023-03-11T17:07:33;3.80;99.90
15355;DHT22;7777;52.254;9.618;2023-03-11T17:09:59;3.80;99.90
15355;DHT22;7777;52.254;9.618;2023-03-11T17:12:26;3.70;99.90
15355;DHT22;7777;52.254;9.618;2023-03-11T17:14:53;3.70;99.90
15355;DHT22;7777;52.254;9.618;2023-03-11T17:17:20;3.60;99.90
15355;DHT22;7777;52.254;9.618;2023-03-11T17:19:46;3.50;99.90
15355;DHT22;7777;52.254;9.618;2023-03-11T17:22:12;3.50;99.90
15355;DHT22;7777;52.254;9.618;2023-03-11T17:24:38;3.40;99.90
15355;DHT22;7777;52.254;9.618;2023-03-11T17:27:04;3.40;99.90
15355;DHT22;7777;52.254;9.618;2023-03-11T17:29:30;3.30;99.90
15355;DHT22;7777;52.254;9.618;2023-03-11T17:31:56;3.30;99.90
15355;DHT22;7777;52.254;9.618;2023-03-11T17:34:22;3.20;99.90
15355;DHT22;7777;52.254;9.618;2023-03-11T17:36:48;3.20;99.90
15355;DHT22;7777;52.254;9.618;2023-03-11T17:39:13;3.10;99.90
15355;DHT22;7777;52.254;9.618;2023-03-11T17:41:39;3.10;99.90
15355;DHT22;7777;52.254;9.618;2023-03-11T17:44:05;3.10;99.90
15355;DHT22;7777;52.254;9.618;2023-03-11T17:46:31;3.10;99.90
15355;DHT22;7777;52.254;9.618;2023-03-11T17:48:57;3.10;99.90
15355;DHT22;7777;52.254;9.618;2023-03-11T17:51:24;3.10;99.90
15355;DHT22;7777;52.254;9.618;2023-03-11T17:53:52;3.00;99.90